sensor_id;sensor_type;location;lat;lon;timestamp;P1;durP1;ratioP1;P2;durP2;ratioP2
6292;SDS011;3179;54.350;10.102;2023-04-21T00:00:29;8.30;;;3.77;;
6292;SDS011;3179;54.350;10.102;2023-04-21T00:02:56;8.63;;;4.23;;
6292;SDS011;3179;54.350;10.102;2023-04-21T00:05:22;10.30;;;4.03;;
6292;SDS011;3179;54.350;10.102;2023-04-21T00:07:49;9.00;;;3.70;;
6292;SDS011;3179;54.350;10.102;2023-04-21T00:10:16;9.80;;;4.53;;
6292;SDS011;3179;54.350;10.102;2023-04-21T00:12:43;8.03;;;4.13;;
6292;SDS011;3179;54.350;10.102;2023-04-21T00:15:11;9.20;;;4.40;;
6292;SDS011;3179;54.350;10.102;2023-04-21T00:17:38;10.37;;;5.43;;
6292;SDS011;3179;54.350;10.102;2023-04-21T00:20:06;6.30;;;3.57;;
6292;SDS011;3179;54.350;10.102;2023-04-21T00:22:34;8.53;;;4.47;;
6292;SDS011;3179;54.350;10.102;2023-04-21T00:25:01;12.87;;;4.87;;
6292;SDS011;3179;54.350;10.102;2023-04-21T00:27:27;13.70;;;4.00;;
6292;SDS011;3179;54.350;10.102;2023-04-21T00:29:54;3.63;;;3.10;;
6292;SDS011;3179;54.350;10.102;2023-04-21T00:32:23;8.40;;;3.93;;
6292;SDS011;3179;54.350;10.102;2023-04-21T00:34:50;10.27;;;3.70;;
6292;SDS011;3179;54.350;10.102;2023-04-21T00:37:17;9.97;;;4.30;;
6292;SDS011;3179;54.350;10.102;2023-04-21T00:39:44;6.40;;;3.70;;
6292;SDS011;3179;54.350;10.102;2023-04-21T00:42:10;7.37;;;3.60;;
6292;SDS011;3179;54.350;10.102;2023-04-21T00:44:40;6.57;;;3.83;;
6292;SDS011;3179;54.350;10.102;2023-04-21T00:47:07;7.03;;;3.77;;
6292;SDS011;3179;54.350;10.102;2023-04-21T00:49:35;9.47;;;3.60;;
6292;SDS011;3179;54.350;10.102;2023-04-21T00:52:03;8.93;;;4.30;;
6292;SDS011;3179;54.350;10.102;2023-04-21T00:54:30;8.27;;;3.90;;
6292;SDS011;3179;54.350;10.102;2023-04-21T00:56:57;9.93;;;3.80;;
6292;SDS011;3179;54.350;10.102;2023-04-21T00:59:24;6.27;;;3.30;;
6292;SDS011;3179;54.350;10.102;2023-04-21T01:01:51;5.30;;;3.60;;
6292;SDS011;3179;54.350;10.102;2023-04-21T01:04:17;5.93;;;3.13;;
6292;SDS011;3179;54.350;10.102;2023-04-21T01:06:46;7.03;;;3.73;;
6292;SDS011;3179;54.350;10.102;2023-04-21T01:09:13;7.40;;;3.30;;
6292;SDS011;3179;54.350;10.102;2023-04-21T01:11:40;6.90;;;3.50;;
6292;SDS011;3179;54.350;10.102;2023-04-21T01:14:06;15.90;;;4.33;;
6292;SDS011;3179;54.350;10.102;2023-04-21T01:16:33;4.90;;;3.57;;
6292;SDS011;3179;54.350;10.102;2023-04-21T01:19:01;4.17;;;2.70;;
6292;SDS011;3179;54.350;10.102;2023-04-21T01:21:35;7.80;;;3.30;;
6292;SDS011;3179;54.350;10.102;2023-04-21T01:24:05;8.80;;;4.03;;
6292;SDS011;3179;54.350;10.102;2023-04-21T01:26:32;8.83;;;4.33;;
6292;SDS011;3179;54.350;10.102;2023-04-21T01:28:59;4.40;;;2.90;;
6292;SDS011;3179;54.350;10.102;2023-04-21T01:31:26;9.43;;;3.33;;
6292;SDS011;3179;54.350;10.102;2023-04-21T01:33:52;4.07;;;2.57;;
6292;SDS011;3179;54.350;10.102;2023-04-21T01:36:19;8.43;;;2.80;;
6292;SDS011;3179;54.350;10.102;2023-04-21T01:38:47;7.50;;;3.43;;
6292;SDS011;3179;54.350;10.102;2023-04-21T01:41:14;11.43;;;4.33;;
6292;SDS011;3179;54.350;10.102;2023-04-21T01:43:41;6.80;;;3.70;;
6292;SDS011;3179;54.350;10.102;2023-04-21T01:46:08;8.77;;;3.90;;
6292;SDS011;3179;54.350;10.102;2023-04-21T01:48:35;4.67;;;3.17;;
6292;SDS011;3179;54.350;10.102;2023-04-21T01:51:02;9.60;;;3.47;;
6292;SDS011;3179;54.350;10.102;2023-04-21T01:53:29;12.53;;;3.60;;
6292;SDS011;3179;54.350;10.102;2023-04-21T01:55:57;5.87;;;3.40;;
6292;SDS011;3179;54.350;10.102;2023-04-21T01:58:24;6.87;;;3.40;;
6292;SDS011;3179;54.350;10.102;2023-04-21T02:00:51;11.63;;;3.73;;
6292;SDS011;3179;54.350;10.102;2023-04-21T02:03:17;4.87;;;3.40;;
6292;SDS011;3179;54.350;10.102;2023-04-21T02:05:44;5.97;;;2.67;;
6292;SDS011;3179;54.350;10.102;2023-04-21T02:08:11;7.00;;;3.37;;
6292;SDS011;3179;54.350;10.102;2023-04-21T02:10:37;5.07;;;3.10;;
6292;SDS011;3179;54.350;10.102;2023-04-21T02:13:06;6.27;;;3.10;;
6292;SDS011;3179;54.350;10.102;2023-04-21T02:15:33;5.93;;;2.93;;
6292;SDS011;3179;54.350;10.102;2023-04-21T02:17:59;5.27;;;2.83;;
6292;SDS011;3179;54.350;10.102;2023-04-21T02:20:26;5.23;;;3.70;;
6292;SDS011;3179;54.350;10.102;2023-04-21T02:22:53;11.33;;;4.23;;
6292;SDS011;3179;54.350;10.102;2023-04-21T02:25:19;6.67;;;2.70;;
6292;SDS011;3179;54.350;10.102;2023-04-21T02:27:46;5.73;;;3.23;;
6292;SDS011;3179;54.350;10.102;2023-04-21T02:30:14;7.33;;;4.13;;
6292;SDS011;3179;54.350;10.102;2023-04-21T02:32:41;8.57;;;3.40;;
6292;SDS011;3179;54.350;10.102;2023-04-21T02:35:08;7.23;;;3.37;;
6292;SDS011;3179;54.350;10.102;2023-04-21T02:37:35;5.90;;;3.17;;
6292;SDS011;3179;54.350;10.102;2023-04-21T02:40:02;5.77;;;3.20;;
6292;SDS011;3179;54.350;10.102;2023-04-21T02:42:29;5.63;;;3.40;;
6292;SDS011;3179;54.350;10.102;2023-04-21T02:44:58;8.73;;;3.40;;
6292;SDS011;3179;54.350;10.102;2023-04-21T02:47:27;8.83;;;3.73;;
6292;SDS011;3179;54.350;10.102;2023-04-21T02:49:53;9.67;;;3.50;;
6292;SDS011;3179;54.350;10.102;2023-04-21T02:52:20;5.53;;;3.37;;
6292;SDS011;3179;54.350;10.102;2023-04-21T02:54:47;6.13;;;3.03;;
6292;SDS011;3179;54.350;10.102;2023-04-21T02:57:13;6.10;;;3.50;;
6292;SDS011;3179;54.350;10.102;2023-04-21T02:59:40;7.80;;;3.40;;
6292;SDS011;3179;54.350;10.102;2023-04-21T03:02:07;4.60;;;3.07;;
6292;SDS011;3179;54.350;10.102;2023-04-21T03:04:35;4.10;;;2.63;;
6292;SDS011;3179;54.350;10.102;2023-04-21T03:07:02;6.50;;;3.13;;
6292;SDS011;3179;54.350;10.102;2023-04-21T03:09:28;10.20;;;3.20;;
6292;SDS011;3179;54.350;10.102;2023-04-21T03:11:55;4.83;;;3.00;;
6292;SDS011;3179;54.350;10.102;2023-04-21T03:14:22;3.83;;;2.50;;
6292;SDS011;3179;54.350;10.102;2023-04-21T03:16:49;4.87;;;3.10;;
6292;SDS011;3179;54.350;10.102;2023-04-21T03:19:15;7.50;;;3.33;;
6292;SDS011;3179;54.350;10.102;2023-04-21T03:21:43;7.13;;;3.67;;
6292;SDS011;3179;54.350;10.102;2023-04-21T03:24:10;7.63;;;3.43;;
6292;SDS011;3179;54.350;10.102;2023-04-21T03:26:37;6.97;;;3.30;;
6292;SDS011;3179;54.350;10.102;2023-04-21T03:29:04;3.40;;;2.80;;
6292;SDS011;3179;54.350;10.102;2023-04-21T03:31:31;6.70;;;3.23;;
6292;SDS011;3179;54.350;10.102;2023-04-21T03:33:58;10.00;;;3.10;;
6292;SDS011;3179;54.350;10.102;2023-04-21T03:36:24;6.70;;;3.30;;
6292;SDS011;3179;54.350;10.102;2023-04-21T03:38:52;7.47;;;2.63;;
6292;SDS011;3179;54.350;10.102;2023-04-21T03:41:19;4.03;;;2.70;;
6292;SDS011;3179;54.350;10.102;2023-04-21T03:43:48;5.83;;;3.23;;
6292;SDS011;3179;54.350;10.102;2023-04-21T03:46:16;6.10;;;2.87;;
6292;SDS011;3179;54.350;10.102;2023-04-21T03:48:44;8.73;;;3.20;;
6292;SDS011;3179;54.350;10.102;2023-04-21T03:51:11;5.23;;;2.87;;
6292;SDS011;3179;54.350;10.102;2023-04-21T03:53:37;4.83;;;2.87;;
6292;SDS011;3179;54.350;10.102;2023-04-21T03:56:06;3.00;;;2.40;;
6292;SDS011;3179;54.350;10.102;2023-04-21T03:58:33;4.17;;;2.53;;
6292;SDS011;3179;54.350;10.102;2023-04-21T04:01:00;8.57;;;3.20;;
6292;SDS011;3179;54.350;10.102;2023-04-21T04:03:27;6.40;;;2.93;;
6292;SDS011;3179;54.350;10.102;2023-04-21T04:05:53;6.27;;;3.27;;
6292;SDS011;3179;54.350;10.102;2023-04-21T04:08:21;5.47;;;2.60;;
6292;SDS011;3179;54.350;10.102;2023-04-21T04:10:47;6.67;;;2.37;;
6292;SDS011;3179;54.350;10.102;2023-04-21T04:13:15;5.30;;;2.67;;
6292;SDS011;3179;54.350;10.102;2023-04-21T04:15:42;3.70;;;2.67;;
6292;SDS011;3179;54.350;10.102;2023-04-21T04:18:09;6.80;;;2.90;;
6292;SDS011;3179;54.350;10.102;2023-04-21T04:20:36;9.30;;;3.53;;
6292;SDS011;3179;54.350;10.102;2023-04-21T04:23:02;4.53;;;2.97;;
6292;SDS011;3179;54.350;10.102;2023-04-21T04:25:29;6.60;;;3.00;;
6292;SDS011;3179;54.350;10.102;2023-04-21T04:27:57;7.43;;;2.47;;
6292;SDS011;3179;54.350;10.102;2023-04-21T04:30:26;6.10;;;2.83;;
6292;SDS011;3179;54.350;10.102;2023-04-21T04:32:53;4.90;;;2.97;;
6292;SDS011;3179;54.350;10.102;2023-04-21T04:35:21;5.97;;;3.17;;
6292;SDS011;3179;54.350;10.102;2023-04-21T04:37:48;5.10;;;2.73;;
6292;SDS011;3179;54.350;10.102;2023-04-21T04:40:16;5.20;;;2.90;;
6292;SDS011;3179;54.350;10.102;2023-04-21T04:42:43;4.97;;;2.73;;
6292;SDS011;3179;54.350;10.102;2023-04-21T04:45:11;8.30;;;3.60;;
6292;SDS011;3179;54.350;10.102;2023-04-21T04:47:39;5.00;;;2.90;;
6292;SDS011;3179;54.350;10.102;2023-04-21T04:50:06;6.17;;;2.90;;
6292;SDS011;3179;54.350;10.102;2023-04-21T04:52:33;4.00;;;2.30;;
6292;SDS011;3179;54.350;10.102;2023-04-21T04:55:00;4.97;;;2.63;;
6292;SDS011;3179;54.350;10.102;2023-04-21T04:57:27;5.80;;;2.70;;
6292;SDS011;3179;54.350;10.102;2023-04-21T04:59:55;4.13;;;2.50;;
6292;SDS011;3179;54.350;10.102;2023-04-21T05:02:22;3.87;;;2.50;;
6292;SDS011;3179;54.350;10.102;2023-04-21T05:04:50;6.33;;;2.37;;
6292;SDS011;3179;54.350;10.102;2023-04-21T05:07:17;5.70;;;2.30;;
6292;SDS011;3179;54.350;10.102;2023-04-21T05:09:43;6.23;;;2.60;;
6292;SDS011;3179;54.350;10.102;2023-04-21T05:12:10;5.00;;;2.40;;
6292;SDS011;3179;54.350;10.102;2023-04-21T05:14:37;7.60;;;3.17;;
6292;SDS011;3179;54.350;10.102;2023-04-21T05:17:04;5.53;;;2.53;;
6292;SDS011;3179;54.350;10.102;2023-04-21T05:19:30;3.60;;;2.73;;
6292;SDS011;3179;54.350;10.102;2023-04-21T05:22:02;3.83;;;2.73;;
6292;SDS011;3179;54.350;10.102;2023-04-21T05:24:30;6.20;;;3.00;;
6292;SDS011;3179;54.350;10.102;2023-04-21T05:26:57;12.17;;;3.17;;
6292;SDS011;3179;54.350;10.102;2023-04-21T05:29:24;3.80;;;2.77;;
6292;SDS011;3179;54.350;10.102;2023-04-21T05:31:50;5.33;;;2.93;;
6292;SDS011;3179;54.350;10.102;2023-04-21T05:34:17;4.13;;;3.07;;
6292;SDS011;3179;54.350;10.102;2023-04-21T05:36:44;12.23;;;3.27;;
6292;SDS011;3179;54.350;10.102;2023-04-21T05:39:14;6.13;;;2.90;;
6292;SDS011;3179;54.350;10.102;2023-04-21T05:41:41;4.37;;;2.30;;
6292;SDS011;3179;54.350;10.102;2023-04-21T05:44:08;5.30;;;3.20;;
6292;SDS011;3179;54.350;10.102;2023-04-21T05:46:35;5.97;;;2.80;;
6292;SDS011;3179;54.350;10.102;2023-04-21T05:49:02;4.20;;;2.73;;
6292;SDS011;3179;54.350;10.102;2023-04-21T05:51:28;6.27;;;3.00;;
6292;SDS011;3179;54.350;10.102;2023-04-21T05:53:56;5.10;;;2.70;;
6292;SDS011;3179;54.350;10.102;2023-04-21T05:56:24;5.20;;;2.77;;
6292;SDS011;3179;54.350;10.102;2023-04-21T05:58:51;5.43;;;2.63;;
6292;SDS011;3179;54.350;10.102;2023-04-21T06:01:17;3.83;;;2.70;;
6292;SDS011;3179;54.350;10.102;2023-04-21T06:03:44;6.50;;;3.30;;
6292;SDS011;3179;54.350;10.102;2023-04-21T06:06:12;6.37;;;2.87;;
6292;SDS011;3179;54.350;10.102;2023-04-21T06:08:39;5.10;;;2.70;;
6292;SDS011;3179;54.350;10.102;2023-04-21T06:11:06;9.20;;;2.97;;
6292;SDS011;3179;54.350;10.102;2023-04-21T06:13:34;7.70;;;3.07;;
6292;SDS011;3179;54.350;10.102;2023-04-21T06:16:01;8.80;;;3.70;;
6292;SDS011;3179;54.350;10.102;2023-04-21T06:18:28;5.20;;;2.80;;
6292;SDS011;3179;54.350;10.102;2023-04-21T06:20:55;9.83;;;3.23;;
6292;SDS011;3179;54.350;10.102;2023-04-21T06:23:21;6.17;;;2.90;;
6292;SDS011;3179;54.350;10.102;2023-04-21T06:25:57;4.27;;;2.97;;
6292;SDS011;3179;54.350;10.102;2023-04-21T06:28:25;8.77;;;3.27;;
6292;SDS011;3179;54.350;10.102;2023-04-21T06:30:53;3.73;;;2.70;;
6292;SDS011;3179;54.350;10.102;2023-04-21T06:33:20;7.77;;;3.47;;
6292;SDS011;3179;54.350;10.102;2023-04-21T06:35:47;7.50;;;4.37;;
6292;SDS011;3179;54.350;10.102;2023-04-21T06:38:13;10.70;;;4.00;;
6292;SDS011;3179;54.350;10.102;2023-04-21T06:40:40;6.60;;;3.57;;
6292;SDS011;3179;54.350;10.102;2023-04-21T06:43:07;7.40;;;3.33;;
6292;SDS011;3179;54.350;10.102;2023-04-21T06:45:33;5.63;;;2.87;;
6292;SDS011;3179;54.350;10.102;2023-04-21T06:48:02;8.10;;;3.70;;
6292;SDS011;3179;54.350;10.102;2023-04-21T06:50:29;11.63;;;3.60;;
6292;SDS011;3179;54.350;10.102;2023-04-21T06:52:55;5.10;;;3.03;;
6292;SDS011;3179;54.350;10.102;2023-04-21T06:55:22;4.40;;;2.80;;
6292;SDS011;3179;54.350;10.102;2023-04-21T06:57:49;7.87;;;3.43;;
6292;SDS011;3179;54.350;10.102;2023-04-21T07:00:16;5.70;;;2.90;;
6292;SDS011;3179;54.350;10.102;2023-04-21T07:02:43;7.80;;;3.37;;
6292;SDS011;3179;54.350;10.102;2023-04-21T07:05:11;6.10;;;3.20;;
6292;SDS011;3179;54.350;10.102;2023-04-21T07:07:38;4.70;;;2.63;;
6292;SDS011;3179;54.350;10.102;2023-04-21T07:10:05;5.37;;;2.83;;
6292;SDS011;3179;54.350;10.102;2023-04-21T07:12:33;5.73;;;2.87;;
6292;SDS011;3179;54.350;10.102;2023-04-21T07:14:59;5.30;;;2.57;;
6292;SDS011;3179;54.350;10.102;2023-04-21T07:17:26;7.37;;;3.10;;
6292;SDS011;3179;54.350;10.102;2023-04-21T07:19:53;6.20;;;2.90;;
6292;SDS011;3179;54.350;10.102;2023-04-21T07:22:21;6.03;;;3.30;;
6292;SDS011;3179;54.350;10.102;2023-04-21T07:24:48;5.33;;;2.93;;
6292;SDS011;3179;54.350;10.102;2023-04-21T07:27:14;4.23;;;2.00;;
6292;SDS011;3179;54.350;10.102;2023-04-21T07:29:43;5.70;;;3.63;;
6292;SDS011;3179;54.350;10.102;2023-04-21T07:32:09;7.57;;;3.13;;
6292;SDS011;3179;54.350;10.102;2023-04-21T07:34:36;10.03;;;3.40;;
6292;SDS011;3179;54.350;10.102;2023-04-21T07:37:03;9.33;;;2.93;;
6292;SDS011;3179;54.350;10.102;2023-04-21T07:39:31;5.27;;;3.13;;
6292;SDS011;3179;54.350;10.102;2023-04-21T07:41:58;11.03;;;3.17;;
6292;SDS011;3179;54.350;10.102;2023-04-21T07:44:24;6.20;;;3.67;;
6292;SDS011;3179;54.350;10.102;2023-04-21T07:46:53;4.60;;;3.00;;
6292;SDS011;3179;54.350;10.102;2023-04-21T07:49:20;6.40;;;3.47;;
6292;SDS011;3179;54.350;10.102;2023-04-21T07:51:46;8.37;;;3.50;;
6292;SDS011;3179;54.350;10.102;2023-04-21T07:54:13;12.40;;;3.47;;
6292;SDS011;3179;54.350;10.102;2023-04-21T07:56:42;8.00;;;3.77;;
6292;SDS011;3179;54.350;10.102;2023-04-21T07:59:08;6.40;;;3.00;;
6292;SDS011;3179;54.350;10.102;2023-04-21T08:01:35;6.73;;;3.70;;
6292;SDS011;3179;54.350;10.102;2023-04-21T08:04:02;7.83;;;2.83;;
6292;SDS011;3179;54.350;10.102;2023-04-21T08:06:29;8.37;;;3.53;;
6292;SDS011;3179;54.350;10.102;2023-04-21T08:08:56;8.27;;;4.10;;
6292;SDS011;3179;54.350;10.102;2023-04-21T08:11:23;5.77;;;3.40;;
6292;SDS011;3179;54.350;10.102;2023-04-21T08:13:51;7.73;;;3.83;;
6292;SDS011;3179;54.350;10.102;2023-04-21T08:16:18;7.97;;;3.27;;
6292;SDS011;3179;54.350;10.102;2023-04-21T08:18:45;5.00;;;3.30;;
6292;SDS011;3179;54.350;10.102;2023-04-21T08:21:12;5.80;;;3.30;;
6292;SDS011;3179;54.350;10.102;2023-04-21T08:23:39;11.90;;;4.37;;
6292;SDS011;3179;54.350;10.102;2023-04-21T08:26:05;5.70;;;3.40;;
6292;SDS011;3179;54.350;10.102;2023-04-21T08:28:32;5.40;;;3.50;;
6292;SDS011;3179;54.350;10.102;2023-04-21T08:31:00;7.40;;;4.47;;
6292;SDS011;3179;54.350;10.102;2023-04-21T08:33:28;8.77;;;4.07;;
6292;SDS011;3179;54.350;10.102;2023-04-21T08:35:55;11.33;;;4.07;;
6292;SDS011;3179;54.350;10.102;2023-04-21T08:38:22;5.43;;;3.40;;
6292;SDS011;3179;54.350;10.102;2023-04-21T08:40:48;7.20;;;4.87;;
6292;SDS011;3179;54.350;10.102;2023-04-21T08:43:15;8.93;;;4.17;;
6292;SDS011;3179;54.350;10.102;2023-04-21T08:45:42;8.20;;;5.10;;
6292;SDS011;3179;54.350;10.102;2023-04-21T08:48:11;5.70;;;4.37;;
6292;SDS011;3179;54.350;10.102;2023-04-21T08:50:42;9.50;;;4.93;;
6292;SDS011;3179;54.350;10.102;2023-04-21T08:53:10;11.70;;;4.90;;
6292;SDS011;3179;54.350;10.102;2023-04-21T08:55:37;13.13;;;5.23;;
6292;SDS011;3179;54.350;10.102;2023-04-21T08:58:06;6.33;;;3.93;;
6292;SDS011;3179;54.350;10.102;2023-04-21T09:00:34;11.13;;;4.93;;
6292;SDS011;3179;54.350;10.102;2023-04-21T09:03:00;8.43;;;4.20;;
6292;SDS011;3179;54.350;10.102;2023-04-21T09:05:30;6.90;;;3.80;;
6292;SDS011;3179;54.350;10.102;2023-04-21T09:08:06;8.40;;;4.13;;
6292;SDS011;3179;54.350;10.102;2023-04-21T09:10:41;14.23;;;4.43;;
6292;SDS011;3179;54.350;10.102;2023-04-21T09:13:08;6.67;;;4.67;;
6292;SDS011;3179;54.350;10.102;2023-04-21T09:15:38;9.20;;;3.83;;
6292;SDS011;3179;54.350;10.102;2023-04-21T09:18:09;9.37;;;4.40;;
6292;SDS011;3179;54.350;10.102;2023-04-21T09:20:39;7.20;;;4.03;;
6292;SDS011;3179;54.350;10.102;2023-04-21T09:23:07;9.93;;;4.67;;
6292;SDS011;3179;54.350;10.102;2023-04-21T09:25:37;6.33;;;4.40;;
6292;SDS011;3179;54.350;10.102;2023-04-21T09:28:06;10.60;;;5.30;;
6292;SDS011;3179;54.350;10.102;2023-04-21T09:30:33;5.00;;;3.50;;
6292;SDS011;3179;54.350;10.102;2023-04-21T09:33:01;7.20;;;4.60;;
6292;SDS011;3179;54.350;10.102;2023-04-21T09:35:28;8.70;;;4.33;;
6292;SDS011;3179;54.350;10.102;2023-04-21T09:38:00;10.33;;;4.60;;
6292;SDS011;3179;54.350;10.102;2023-04-21T09:40:28;8.40;;;4.40;;
6292;SDS011;3179;54.350;10.102;2023-04-21T09:42:55;7.80;;;4.80;;
6292;SDS011;3179;54.350;10.102;2023-04-21T09:45:22;10.40;;;4.57;;
6292;SDS011;3179;54.350;10.102;2023-04-21T09:47:54;6.43;;;4.40;;
6292;SDS011;3179;54.350;10.102;2023-04-21T09:50:22;7.37;;;4.17;;
6292;SDS011;3179;54.350;10.102;2023-04-21T09:52:50;6.67;;;3.90;;
6292;SDS011;3179;54.350;10.102;2023-04-21T09:55:21;8.60;;;4.37;;
6292;SDS011;3179;54.350;10.102;2023-04-21T09:57:51;5.00;;;3.50;;
6292;SDS011;3179;54.350;10.102;2023-04-21T10:00:21;10.23;;;3.60;;
6292;SDS011;3179;54.350;10.102;2023-04-21T10:02:52;10.70;;;3.70;;
6292;SDS011;3179;54.350;10.102;2023-04-21T10:05:20;6.67;;;4.27;;
6292;SDS011;3179;54.350;10.102;2023-04-21T10:07:48;5.40;;;3.50;;
6292;SDS011;3179;54.350;10.102;2023-04-21T10:10:15;8.60;;;4.20;;
6292;SDS011;3179;54.350;10.102;2023-04-21T10:12:47;11.03;;;4.43;;
6292;SDS011;3179;54.350;10.102;2023-04-21T10:15:28;9.63;;;5.30;;
6292;SDS011;3179;54.350;10.102;2023-04-21T10:18:09;7.73;;;4.33;;
6292;SDS011;3179;54.350;10.102;2023-04-21T10:20:49;5.40;;;3.77;;
6292;SDS011;3179;54.350;10.102;2023-04-21T10:23:24;6.90;;;4.40;;
6292;SDS011;3179;54.350;10.102;2023-04-21T10:26:07;8.83;;;4.30;;
6292;SDS011;3179;54.350;10.102;2023-04-21T10:28:40;7.40;;;4.50;;
6292;SDS011;3179;54.350;10.102;2023-04-21T10:31:18;7.80;;;4.03;;
6292;SDS011;3179;54.350;10.102;2023-04-21T10:37:08;7.67;;;4.03;;
6292;SDS011;3179;54.350;10.102;2023-04-21T10:39:52;6.43;;;4.03;;
6292;SDS011;3179;54.350;10.102;2023-04-21T10:42:24;4.87;;;3.43;;
6292;SDS011;3179;54.350;10.102;2023-04-21T10:45:06;5.77;;;3.73;;
6292;SDS011;3179;54.350;10.102;2023-04-21T10:47:41;7.70;;;4.13;;
6292;SDS011;3179;54.350;10.102;2023-04-21T10:50:22;9.30;;;4.57;;
6292;SDS011;3179;54.350;10.102;2023-04-21T10:52:54;10.33;;;4.50;;
6292;SDS011;3179;54.350;10.102;2023-04-21T10:55:26;7.17;;;3.83;;
6292;SDS011;3179;54.350;10.102;2023-04-21T10:57:59;7.53;;;3.47;;
6292;SDS011;3179;54.350;10.102;2023-04-21T11:00:29;5.33;;;3.40;;
6292;SDS011;3179;54.350;10.102;2023-04-21T11:02:56;6.07;;;3.70;;
6292;SDS011;3179;54.350;10.102;2023-04-21T11:05:28;8.37;;;4.33;;
6292;SDS011;3179;54.350;10.102;2023-04-21T11:08:02;4.27;;;3.60;;
6292;SDS011;3179;54.350;10.102;2023-04-21T11:10:40;9.87;;;3.83;;
6292;SDS011;3179;54.350;10.102;2023-04-21T11:13:07;6.90;;;3.63;;
6292;SDS011;3179;54.350;10.102;2023-04-21T11:15:36;5.37;;;3.53;;
6292;SDS011;3179;54.350;10.102;2023-04-21T11:18:04;5.37;;;3.43;;
6292;SDS011;3179;54.350;10.102;2023-04-21T11:20:32;5.37;;;3.60;;
6292;SDS011;3179;54.350;10.102;2023-04-21T11:22:59;5.70;;;3.50;;
6292;SDS011;3179;54.350;10.102;2023-04-21T11:25:26;5.47;;;3.30;;
6292;SDS011;3179;54.350;10.102;2023-04-21T11:27:55;7.00;;;3.87;;
6292;SDS011;3179;54.350;10.102;2023-04-21T11:30:29;12.80;;;4.57;;
6292;SDS011;3179;54.350;10.102;2023-04-21T11:32:58;5.50;;;3.50;;
6292;SDS011;3179;54.350;10.102;2023-04-21T11:35:25;5.77;;;4.20;;
6292;SDS011;3179;54.350;10.102;2023-04-21T11:37:53;5.00;;;4.10;;
6292;SDS011;3179;54.350;10.102;2023-04-21T11:40:20;5.90;;;4.13;;
6292;SDS011;3179;54.350;10.102;2023-04-21T11:42:47;6.77;;;4.30;;
6292;SDS011;3179;54.350;10.102;2023-04-21T11:45:16;7.53;;;4.33;;
6292;SDS011;3179;54.350;10.102;2023-04-21T11:47:44;8.93;;;3.87;;
6292;SDS011;3179;54.350;10.102;2023-04-21T11:50:16;4.80;;;4.27;;
6292;SDS011;3179;54.350;10.102;2023-04-21T11:52:57;8.77;;;4.27;;
6292;SDS011;3179;54.350;10.102;2023-04-21T11:55:23;9.83;;;3.73;;
6292;SDS011;3179;54.350;10.102;2023-04-21T11:57:50;11.33;;;4.53;;
6292;SDS011;3179;54.350;10.102;2023-04-21T12:00:17;11.10;;;4.50;;
6292;SDS011;3179;54.350;10.102;2023-04-21T12:02:52;5.20;;;3.77;;
6292;SDS011;3179;54.350;10.102;2023-04-21T12:05:21;10.27;;;3.63;;
6292;SDS011;3179;54.350;10.102;2023-04-21T12:07:48;6.60;;;4.73;;
6292;SDS011;3179;54.350;10.102;2023-04-21T12:10:16;7.00;;;4.03;;
6292;SDS011;3179;54.350;10.102;2023-04-21T12:12:44;10.03;;;4.00;;
6292;SDS011;3179;54.350;10.102;2023-04-21T12:15:15;7.63;;;4.63;;
6292;SDS011;3179;54.350;10.102;2023-04-21T12:17:44;5.13;;;4.63;;
6292;SDS011;3179;54.350;10.102;2023-04-21T12:20:12;5.60;;;3.30;;
6292;SDS011;3179;54.350;10.102;2023-04-21T12:22:42;7.33;;;4.40;;
6292;SDS011;3179;54.350;10.102;2023-04-21T12:25:09;4.83;;;3.77;;
6292;SDS011;3179;54.350;10.102;2023-04-21T12:27:36;7.20;;;4.20;;
6292;SDS011;3179;54.350;10.102;2023-04-21T12:30:03;8.53;;;4.47;;
6292;SDS011;3179;54.350;10.102;2023-04-21T12:32:31;7.27;;;4.17;;
6292;SDS011;3179;54.350;10.102;2023-04-21T12:34:57;6.10;;;4.27;;
6292;SDS011;3179;54.350;10.102;2023-04-21T12:37:25;5.53;;;3.80;;
6292;SDS011;3179;54.350;10.102;2023-04-21T12:39:53;5.20;;;4.27;;
6292;SDS011;3179;54.350;10.102;2023-04-21T12:42:21;7.20;;;4.40;;
6292;SDS011;3179;54.350;10.102;2023-04-21T12:44:48;7.70;;;3.90;;
6292;SDS011;3179;54.350;10.102;2023-04-21T12:47:14;9.43;;;5.17;;
6292;SDS011;3179;54.350;10.102;2023-04-21T12:49:41;6.00;;;4.13;;
6292;SDS011;3179;54.350;10.102;2023-04-21T12:52:08;5.13;;;3.83;;
6292;SDS011;3179;54.350;10.102;2023-04-21T12:54:35;7.77;;;3.90;;
6292;SDS011;3179;54.350;10.102;2023-04-21T12:57:03;7.37;;;4.33;;
6292;SDS011;3179;54.350;10.102;2023-04-21T12:59:30;6.13;;;4.40;;
6292;SDS011;3179;54.350;10.102;2023-04-21T13:01:57;9.70;;;5.07;;
6292;SDS011;3179;54.350;10.102;2023-04-21T13:04:24;8.20;;;4.53;;
6292;SDS011;3179;54.350;10.102;2023-04-21T13:06:50;5.20;;;4.10;;
6292;SDS011;3179;54.350;10.102;2023-04-21T13:09:17;8.90;;;4.40;;
6292;SDS011;3179;54.350;10.102;2023-04-21T13:11:44;6.50;;;4.30;;
6292;SDS011;3179;54.350;10.102;2023-04-21T13:14:12;7.50;;;4.23;;
6292;SDS011;3179;54.350;10.102;2023-04-21T13:16:39;8.53;;;4.30;;
6292;SDS011;3179;54.350;10.102;2023-04-21T13:19:06;7.63;;;4.03;;
6292;SDS011;3179;54.350;10.102;2023-04-21T13:21:33;7.17;;;4.73;;
6292;SDS011;3179;54.350;10.102;2023-04-21T13:24:00;9.93;;;4.27;;
6292;SDS011;3179;54.350;10.102;2023-04-21T13:26:27;6.43;;;4.43;;
6292;SDS011;3179;54.350;10.102;2023-04-21T13:28:54;11.50;;;4.77;;
6292;SDS011;3179;54.350;10.102;2023-04-21T13:31:22;7.47;;;4.73;;
6292;SDS011;3179;54.350;10.102;2023-04-21T13:33:49;7.20;;;4.70;;
6292;SDS011;3179;54.350;10.102;2023-04-21T13:36:15;9.50;;;5.10;;
6292;SDS011;3179;54.350;10.102;2023-04-21T13:38:42;11.13;;;5.23;;
6292;SDS011;3179;54.350;10.102;2023-04-21T13:41:09;5.43;;;4.43;;
6292;SDS011;3179;54.350;10.102;2023-04-21T13:43:36;8.50;;;4.53;;
6292;SDS011;3179;54.350;10.102;2023-04-21T13:46:03;13.27;;;5.60;;
6292;SDS011;3179;54.350;10.102;2023-04-21T13:48:31;7.23;;;4.73;;
6292;SDS011;3179;54.350;10.102;2023-04-21T13:50:58;5.20;;;3.93;;
6292;SDS011;3179;54.350;10.102;2023-04-21T13:53:25;7.70;;;4.70;;
6292;SDS011;3179;54.350;10.102;2023-04-21T13:55:52;11.20;;;4.20;;
6292;SDS011;3179;54.350;10.102;2023-04-21T13:58:20;5.97;;;4.53;;
6292;SDS011;3179;54.350;10.102;2023-04-21T14:00:47;7.47;;;4.97;;
6292;SDS011;3179;54.350;10.102;2023-04-21T14:03:14;9.33;;;4.50;;
6292;SDS011;3179;54.350;10.102;2023-04-21T14:05:42;7.97;;;4.00;;
6292;SDS011;3179;54.350;10.102;2023-04-21T14:08:09;8.57;;;4.70;;
6292;SDS011;3179;54.350;10.102;2023-04-21T14:10:36;6.30;;;4.33;;
6292;SDS011;3179;54.350;10.102;2023-04-21T14:13:03;5.43;;;4.60;;
6292;SDS011;3179;54.350;10.102;2023-04-21T14:15:29;8.17;;;5.20;;
6292;SDS011;3179;54.350;10.102;2023-04-21T14:17:56;8.87;;;4.87;;
6292;SDS011;3179;54.350;10.102;2023-04-21T14:20:24;6.97;;;5.30;;
6292;SDS011;3179;54.350;10.102;2023-04-21T14:22:52;8.50;;;5.17;;
6292;SDS011;3179;54.350;10.102;2023-04-21T14:25:19;6.60;;;5.30;;
6292;SDS011;3179;54.350;10.102;2023-04-21T14:27:46;6.30;;;4.90;;
6292;SDS011;3179;54.350;10.102;2023-04-21T14:30:13;7.47;;;4.40;;
6292;SDS011;3179;54.350;10.102;2023-04-21T14:32:40;7.57;;;4.67;;
6292;SDS011;3179;54.350;10.102;2023-04-21T14:35:09;6.93;;;4.40;;
6292;SDS011;3179;54.350;10.102;2023-04-21T14:37:36;7.07;;;4.57;;
6292;SDS011;3179;54.350;10.102;2023-04-21T14:40:05;10.00;;;5.30;;
6292;SDS011;3179;54.350;10.102;2023-04-21T14:42:32;9.60;;;5.50;;
6292;SDS011;3179;54.350;10.102;2023-04-21T14:44:59;8.63;;;5.03;;
6292;SDS011;3179;54.350;10.102;2023-04-21T14:47:26;16.20;;;5.90;;
6292;SDS011;3179;54.350;10.102;2023-04-21T14:49:53;7.43;;;5.20;;
6292;SDS011;3179;54.350;10.102;2023-04-21T14:52:20;8.03;;;5.00;;
6292;SDS011;3179;54.350;10.102;2023-04-21T14:54:48;8.10;;;4.87;;
6292;SDS011;3179;54.350;10.102;2023-04-21T14:57:16;8.60;;;5.43;;
6292;SDS011;3179;54.350;10.102;2023-04-21T14:59:45;6.03;;;4.20;;
6292;SDS011;3179;54.350;10.102;2023-04-21T15:02:12;11.07;;;4.77;;
6292;SDS011;3179;54.350;10.102;2023-04-21T15:04:39;8.50;;;5.13;;
6292;SDS011;3179;54.350;10.102;2023-04-21T15:07:06;9.47;;;5.30;;